Time;durP1;ratioP1;P1;durP2;ratioP2;P2;SDS_P1;SDS_P2;PMS_P1;PMS_P2;Temp;Humidity;BMP_temperature;BMP_pressure;BME280_temperature;BME280_humidity;BME280_pressure;Samples;Min_cycle;Max_cycle;Signal;HPM_P1;HPM_P2
2021/04/18 00:01:48;;;;;;;2.00;0.60;;;;;;;;;;5018982;28;20087;-56
2021/04/18 00:04:14;;;;;;;3.15;0.80;;;;;;;;;;5019976;28;20061;-56
2021/04/18 00:06:40;;;;;;;7.65;1.20;;;;;;;;;;5020467;28;20524;-55
2021/04/18 00:09:12;;;;;;;8.02;1.20;;;;;;;;;;5020592;28;21051;-56
2021/04/18 00:11:39;;;;;;;5.57;0.90;;;;;;;;;;5017771;28;20037;-56
2021/04/18 00:14:06;;;;;;;4.93;1.08;;;;;;;;;;5019546;28;20518;-58
2021/04/18 00:16:32;;;;;;;9.10;0.93;;;;;;;;;;5019637;28;20041;-58
2021/04/18 00:18:58;;;;;;;6.28;1.17;;;;;;;;;;5019765;28;20042;-58
2021/04/18 00:21:24;;;;;;;6.38;1.35;;;;;;;;;;5018482;28;20049;-56
2021/04/18 00:23:50;;;;;;;10.60;1.20;;;;;;;;;;5018159;28;20052;-55
2021/04/18 00:26:16;;;;;;;9.00;1.20;;;;;;;;;;5018486;28;20038;-57
2021/04/18 00:28:42;;;;;;;8.65;1.23;;;;;;;;;;5018749;28;20506;-57
2021/04/18 00:31:08;;;;;;;9.00;1.30;;;;;;;;;;5019609;28;20045;-58
2021/04/18 00:33:34;;;;;;;10.80;1.50;;;;;;;;;;5018654;28;20049;-56
2021/04/18 00:36:00;;;;;;;7.90;1.25;;;;;;;;;;5019692;28;20064;-57
2021/04/18 00:38:26;;;;;;;7.18;1.52;;;;;;;;;;5018789;28;20048;-58
2021/04/18 00:40:52;;;;;;;7.45;1.10;;;;;;;;;;5008753;28;20065;-57
2021/04/18 00:43:18;;;;;;;13.15;1.65;;;;;;;;;;5017741;28;20072;-57
2021/04/18 00:45:44;;;;;;;13.70;2.00;;;;;;;;;;5019105;28;20037;-58
2021/04/18 00:48:10;;;;;;;8.95;1.50;;;;;;;;;;5017582;28;20049;-57
2021/04/18 00:50:37;;;;;;;9.65;1.23;;;;;;;;;;5017333;28;20045;-57
2021/04/18 00:53:06;;;;;;;10.48;1.30;;;;;;;;;;5016772;28;20099;-56
2021/04/18 00:55:33;;;;;;;9.02;1.08;;;;;;;;;;5016010;28;20102;-56
2021/04/18 00:57:59;;;;;;;7.68;1.20;;;;;;;;;;5012151;28;20131;-55
2021/04/18 01:00:25;;;;;;;4.43;1.00;;;;;;;;;;5017542;28;20060;-56
2021/04/18 01:02:52;;;;;;;5.88;1.05;;;;;;;;;;5017831;28;20049;-57
2021/04/18 01:05:18;;;;;;;6.93;1.10;;;;;;;;;;5018037;28;20041;-56
2021/04/18 01:07:44;;;;;;;6.72;1.10;;;;;;;;;;5017174;28;20044;-58
2021/04/18 01:10:10;;;;;;;5.72;1.10;;;;;;;;;;5017420;28;20042;-56
2021/04/18 01:12:36;;;;;;;9.63;1.20;;;;;;;;;;5015556;28;20040;-56
2021/04/18 01:15:03;;;;;;;9.52;1.60;;;;;;;;;;5018896;28;20037;-55
2021/04/18 01:17:29;;;;;;;9.65;1.50;;;;;;;;;;5016497;28;20093;-55
2021/04/18 01:19:55;;;;;;;9.35;1.40;;;;;;;;;;5017017;28;20037;-57
2021/04/18 01:22:21;;;;;;;11.80;1.70;;;;;;;;;;5015382;28;20063;-57
2021/04/18 01:24:47;;;;;;;11.00;1.50;;;;;;;;;;5017517;28;20041;-57
2021/04/18 01:27:16;;;;;;;6.60;1.13;;;;;;;;;;5017575;28;20038;-58
2021/04/18 01:29:42;;;;;;;18.85;1.45;;;;;;;;;;5017409;28;20133;-56
2021/04/18 01:32:08;;;;;;;10.65;1.38;;;;;;;;;;5017436;28;20493;-59
2021/04/18 01:34:39;;;;;;;15.07;1.42;;;;;;;;;;5017748;28;20041;-59
2021/04/18 01:37:05;;;;;;;12.32;1.25;;;;;;;;;;5018102;28;20116;-59
2021/04/18 01:39:31;;;;;;;12.85;1.58;;;;;;;;;;5017097;28;20049;-58
2021/04/18 01:41:57;;;;;;;17.50;1.70;;;;;;;;;;5017105;28;20057;-59
2021/04/18 01:44:22;;;;;;;16.75;1.85;;;;;;;;;;5018271;28;20091;-59
2021/04/18 01:46:48;;;;;;;9.32;1.58;;;;;;;;;;5018679;28;20033;-59
2021/04/18 01:49:14;;;;;;;11.55;1.63;;;;;;;;;;5019425;28;20037;-57
2021/04/18 01:51:40;;;;;;;13.50;1.40;;;;;;;;;;5020130;28;20094;-56
2021/04/18 01:54:06;;;;;;;11.73;1.67;;;;;;;;;;5024743;28;20038;-55
2021/04/18 01:56:32;;;;;;;8.40;1.50;;;;;;;;;;5038040;28;20049;-56
2021/04/18 01:58:58;;;;;;;6.63;1.25;;;;;;;;;;5039085;28;20137;-56
2021/04/18 02:01:36;;;;;;;9.60;1.33;;;;;;;;;;5026121;28;20072;-60
2021/04/18 02:04:24;;;;;;;8.20;2.35;;;;;;;;;;5036067;28;20075;-58
2021/04/18 02:06:50;;;;;;;8.75;1.85;;;;;;;;;;5018911;28;20051;-58
2021/04/18 02:09:17;;;;;;;9.32;1.50;;;;;;;;;;5029696;28;20037;-58
2021/04/18 02:11:47;;;;;;;10.07;1.40;;;;;;;;;;5015094;28;20167;-56
2021/04/18 02:14:12;;;;;;;10.88;1.50;;;;;;;;;;5017521;28;20351;-57
2021/04/18 02:16:47;;;;;;;9.73;1.60;;;;;;;;;;5016566;28;20047;-57
2021/04/18 02:19:13;;;;;;;8.48;1.92;;;;;;;;;;5018977;28;20391;-58
2021/04/18 02:21:39;;;;;;;11.93;1.80;;;;;;;;;;5016630;28;20075;-53
2021/04/18 02:24:05;;;;;;;5.60;1.70;;;;;;;;;;5017482;28;20037;-56
2021/04/18 02:26:31;;;;;;;7.18;1.95;;;;;;;;;;5015860;28;20081;-58
2021/04/18 02:28:57;;;;;;;10.68;2.20;;;;;;;;;;5017224;28;20068;-56
2021/04/18 02:31:22;;;;;;;9.00;2.35;;;;;;;;;;5015803;28;20038;-58
2021/04/18 02:33:48;;;;;;;13.27;4.30;;;;;;;;;;5016584;28;20038;-60
2021/04/18 02:36:14;;;;;;;10.68;3.13;;;;;;;;;;5016324;28;20084;-57
2021/04/18 02:38:40;;;;;;;8.63;1.70;;;;;;;;;;5015972;28;20037;-59
2021/04/18 02:41:06;;;;;;;20.02;2.92;;;;;;;;;;5015343;28;20084;-60
2021/04/18 02:43:32;;;;;;;17.20;2.13;;;;;;;;;;5016669;28;20072;-57
2021/04/18 02:45:58;;;;;;;9.13;1.88;;;;;;;;;;5015774;28;20042;-58
2021/04/18 02:48:24;;;;;;;8.38;1.70;;;;;;;;;;5031520;28;20053;-59
2021/04/18 02:50:50;;;;;;;14.07;1.83;;;;;;;;;;5016030;28;20522;-58
2021/04/18 02:53:16;;;;;;;17.63;2.20;;;;;;;;;;5015690;28;20120;-58
2021/04/18 02:55:45;;;;;;;8.23;1.92;;;;;;;;;;5016124;28;20037;-58
2021/04/18 02:58:11;;;;;;;9.25;1.50;;;;;;;;;;5016649;28;20049;-58
2021/04/18 03:00:37;;;;;;;14.98;2.55;;;;;;;;;;5016687;28;20041;-59
2021/04/18 03:03:03;;;;;;;9.55;3.78;;;;;;;;;;5023623;28;20539;-59
2021/04/18 03:05:29;;;;;;;8.80;1.40;;;;;;;;;;5035427;28;20060;-59
2021/04/18 03:07:55;;;;;;;9.85;1.90;;;;;;;;;;5036375;28;20033;-59
2021/04/18 03:10:21;;;;;;;9.25;1.95;;;;;;;;;;5033917;28;20092;-59
2021/04/18 03:12:47;;;;;;;11.30;3.45;;;;;;;;;;5026159;28;20049;-59
2021/04/18 03:15:13;;;;;;;13.70;4.07;;;;;;;;;;5015741;28;20144;-59
2021/04/18 03:17:39;;;;;;;11.35;2.40;;;;;;;;;;5011151;28;20034;-59
2021/04/18 03:20:05;;;;;;;8.05;4.18;;;;;;;;;;5016628;28;20096;-60
2021/04/18 03:22:31;;;;;;;17.00;6.07;;;;;;;;;;5029242;28;20053;-57
2021/04/18 03:24:57;;;;;;;13.88;5.85;;;;;;;;;;5018581;28;20095;-55
2021/04/18 03:27:23;;;;;;;13.52;5.20;;;;;;;;;;5033980;28;20041;-58
2021/04/18 03:29:49;;;;;;;13.50;4.63;;;;;;;;;;5019814;28;20042;-56
2021/04/18 03:32:15;;;;;;;13.20;5.32;;;;;;;;;;5018734;28;20152;-52
2021/04/18 03:34:41;;;;;;;11.38;4.53;;;;;;;;;;5018875;28;20060;-52
2021/04/18 03:37:07;;;;;;;19.55;7.70;;;;;;;;;;5020455;28;20144;-55
2021/04/18 03:39:33;;;;;;;22.95;12.57;;;;;;;;;;5019419;28;20026;-57
2021/04/18 03:41:59;;;;;;;26.17;9.80;;;;;;;;;;5018395;28;20062;-57
2021/04/18 03:44:25;;;;;;;33.30;13.73;;;;;;;;;;5018326;28;20405;-56
2021/04/18 03:46:51;;;;;;;19.90;8.65;;;;;;;;;;5021067;28;20042;-57
2021/04/18 03:49:17;;;;;;;16.15;5.18;;;;;;;;;;5019167;28;20055;-56
2021/04/18 03:51:44;;;;;;;12.40;4.03;;;;;;;;;;5019723;28;20064;-56
2021/04/18 03:54:10;;;;;;;36.60;15.82;;;;;;;;;;5019001;28;20037;-55
2021/04/18 03:56:36;;;;;;;14.02;7.30;;;;;;;;;;5018670;28;20439;-55
2021/04/18 03:59:02;;;;;;;13.27;4.88;;;;;;;;;;5020113;28;20110;-56
2021/04/18 04:01:29;;;;;;;14.75;4.45;;;;;;;;;;5018999;28;20043;-57
2021/04/18 04:03:55;;;;;;;7.85;2.72;;;;;;;;;;5021187;28;20030;-56
2021/04/18 04:06:24;;;;;;;12.40;2.35;;;;;;;;;;5019623;28;20034;-54
2021/04/18 04:08:49;;;;;;;8.25;2.88;;;;;;;;;;5019602;28;20045;-55
2021/04/18 04:11:15;;;;;;;12.18;2.70;;;;;;;;;;5018705;28;20860;-55
2021/04/18 04:13:41;;;;;;;13.98;2.42;;;;;;;;;;5018080;28;20102;-55
2021/04/18 04:16:07;;;;;;;13.63;3.00;;;;;;;;;;5019350;28;20418;-52
2021/04/18 04:18:34;;;;;;;11.20;2.40;;;;;;;;;;5018581;28;20033;-56
2021/04/18 04:20:59;;;;;;;12.85;2.90;;;;;;;;;;5019820;28;20037;-57
2021/04/18 04:23:26;;;;;;;45.83;4.35;;;;;;;;;;5018062;28;20170;-54
2021/04/18 04:25:51;;;;;;;20.55;4.07;;;;;;;;;;5014946;28;20037;-54
2021/04/18 04:28:17;;;;;;;18.88;3.85;;;;;;;;;;5021576;28;20030;-55
2021/04/18 04:30:43;;;;;;;15.95;3.80;;;;;;;;;;5011530;28;20049;-58
2021/04/18 04:33:09;;;;;;;21.23;3.50;;;;;;;;;;5018453;28;20071;-54
2021/04/18 04:35:39;;;;;;;14.68;3.33;;;;;;;;;;5018384;28;20041;-56
2021/04/18 04:38:05;;;;;;;14.50;3.63;;;;;;;;;;5016031;28;20480;-57
2021/04/18 04:40:31;;;;;;;13.82;3.78;;;;;;;;;;5012716;28;20070;-58
2021/04/18 04:42:57;;;;;;;13.10;3.80;;;;;;;;;;5001714;28;20050;-54
2021/04/18 04:45:23;;;;;;;14.45;3.50;;;;;;;;;;5016128;28;20049;-55
2021/04/18 04:47:49;;;;;;;15.93;4.50;;;;;;;;;;5016861;28;20128;-57
2021/04/18 04:50:14;;;;;;;16.90;4.07;;;;;;;;;;5016161;28;20060;-56
2021/04/18 04:52:40;;;;;;;16.65;3.45;;;;;;;;;;5012604;28;20043;-54
2021/04/18 04:55:06;;;;;;;20.45;4.25;;;;;;;;;;5010993;28;20183;-58
2021/04/18 04:57:33;;;;;;;14.65;4.18;;;;;;;;;;5013834;28;20049;-57
2021/04/18 04:59:59;;;;;;;21.23;4.50;;;;;;;;;;5011861;28;20284;-56
2021/04/18 05:02:24;;;;;;;16.60;4.10;;;;;;;;;;5013198;28;20136;-58
2021/04/18 05:04:51;;;;;;;22.27;4.68;;;;;;;;;;5016335;28;20045;-57
2021/04/18 05:07:17;;;;;;;18.92;5.30;;;;;;;;;;5015725;28;20128;-57
2021/04/18 05:09:43;;;;;;;27.83;4.57;;;;;;;;;;5029718;28;20045;-55
2021/04/18 05:12:10;;;;;;;35.75;4.90;;;;;;;;;;5014119;28;20075;-53
2021/04/18 05:14:36;;;;;;;27.10;4.22;;;;;;;;;;5015125;28;20793;-52
2021/04/18 05:17:02;;;;;;;24.75;4.85;;;;;;;;;;5015920;28;20117;-57
2021/04/18 05:19:28;;;;;;;16.70;4.53;;;;;;;;;;5015340;28;20087;-57
2021/04/18 05:21:54;;;;;;;17.70;4.60;;;;;;;;;;5015678;28;20049;-56
2021/04/18 05:24:20;;;;;;;14.40;4.57;;;;;;;;;;5015857;28;20038;-57
2021/04/18 05:26:46;;;;;;;53.45;5.88;;;;;;;;;;5012690;28;20045;-55
2021/04/18 05:29:12;;;;;;;31.13;5.40;;;;;;;;;;5015453;28;20084;-56
2021/04/18 05:31:38;;;;;;;23.95;4.60;;;;;;;;;;5015237;28;20037;-55
2021/04/18 05:34:04;;;;;;;23.80;4.85;;;;;;;;;;5017177;28;20095;-55
2021/04/18 05:36:30;;;;;;;31.13;5.20;;;;;;;;;;5016279;28;20042;-57
2021/04/18 05:38:56;;;;;;;28.92;4.78;;;;;;;;;;5016329;28;20062;-52
2021/04/18 05:41:22;;;;;;;14.82;4.78;;;;;;;;;;5024359;28;20060;-55
2021/04/18 05:43:48;;;;;;;26.00;4.88;;;;;;;;;;5016484;28;20075;-54
2021/04/18 05:46:15;;;;;;;32.35;4.80;;;;;;;;;;5015493;28;20041;-54
2021/04/18 05:48:41;;;;;;;21.33;6.68;;;;;;;;;;5015394;28;20107;-56
2021/04/18 05:51:07;;;;;;;23.02;5.53;;;;;;;;;;5016652;28;20518;-54
2021/04/18 05:53:33;;;;;;;21.60;6.25;;;;;;;;;;5015472;28;20133;-55
2021/04/18 05:55:59;;;;;;;23.10;7.32;;;;;;;;;;5017297;28;20045;-54
2021/04/18 05:58:25;;;;;;;16.58;6.20;;;;;;;;;;5016398;28;20041;-52
2021/04/18 06:00:51;;;;;;;24.27;6.68;;;;;;;;;;5017467;28;20041;-56
2021/04/18 06:03:17;;;;;;;26.95;7.22;;;;;;;;;;5016805;28;20131;-57
2021/04/18 06:05:43;;;;;;;23.38;7.32;;;;;;;;;;5016506;28;20034;-54
2021/04/18 06:08:09;;;;;;;23.33;6.15;;;;;;;;;;5015817;28;20033;-57
2021/04/18 06:10:35;;;;;;;21.73;6.45;;;;;;;;;;5013519;28;20092;-54
2021/04/18 06:13:01;;;;;;;31.10;6.90;;;;;;;;;;5013033;28;20413;-54
2021/04/18 06:15:27;;;;;;;18.90;7.30;;;;;;;;;;5016916;28;20038;-56
2021/04/18 06:17:53;;;;;;;23.17;7.20;;;;;;;;;;5019038;28;20493;-53
2021/04/18 06:20:19;;;;;;;26.02;7.60;;;;;;;;;;5017448;28;20121;-53
2021/04/18 06:22:45;;;;;;;25.85;7.45;;;;;;;;;;5017022;28;20065;-55
2021/04/18 06:25:12;;;;;;;19.65;7.43;;;;;;;;;;5015495;28;20033;-55
2021/04/18 06:27:38;;;;;;;22.10;6.93;;;;;;;;;;5008797;28;20052;-55
2021/04/18 06:30:04;;;;;;;19.67;5.90;;;;;;;;;;5028102;28;20386;-57
2021/04/18 06:32:30;;;;;;;23.02;5.80;;;;;;;;;;5016244;28;20045;-59
2021/04/18 06:35:06;;;;;;;12.13;4.85;;;;;;;;;;5007245;28;20051;-54
2021/04/18 06:37:33;;;;;;;13.23;3.72;;;;;;;;;;5034609;28;20112;-56
2021/04/18 06:39:59;;;;;;;10.10;3.75;;;;;;;;;;5044638;28;20045;-56
2021/04/18 06:42:26;;;;;;;7.80;3.88;;;;;;;;;;5041784;28;20087;-57
2021/04/18 06:44:52;;;;;;;15.35;4.00;;;;;;;;;;5044931;28;20052;-56
2021/04/18 06:47:19;;;;;;;10.45;2.90;;;;;;;;;;5041754;28;20100;-55
2021/04/18 06:49:44;;;;;;;7.95;3.00;;;;;;;;;;5037443;28;20041;-54
2021/04/18 06:52:11;;;;;;;8.75;2.92;;;;;;;;;;5015741;28;20104;-53
2021/04/18 06:54:37;;;;;;;9.18;2.80;;;;;;;;;;5029209;28;20111;-56
2021/04/18 06:57:03;;;;;;;6.55;2.60;;;;;;;;;;5028481;28;20545;-55
2021/04/18 06:59:29;;;;;;;12.98;2.60;;;;;;;;;;5031168;28;20036;-53
2021/04/18 07:01:55;;;;;;;8.68;2.97;;;;;;;;;;5032916;28;20048;-57
2021/04/18 07:04:22;;;;;;;19.40;3.58;;;;;;;;;;5031828;28;20558;-55
2021/04/18 07:06:49;;;;;;;10.45;2.60;;;;;;;;;;5032236;28;20661;-56
2021/04/18 07:09:17;;;;;;;9.93;2.70;;;;;;;;;;5033784;28;21768;-53
2021/04/18 07:11:53;;;;;;;13.35;2.63;;;;;;;;;;5030055;28;20044;-54
2021/04/18 07:14:19;;;;;;;10.93;2.78;;;;;;;;;;5033273;28;20071;-52
2021/04/18 07:16:45;;;;;;;12.70;3.15;;;;;;;;;;5033217;28;20037;-53
2021/04/18 07:19:21;;;;;;;14.50;3.17;;;;;;;;;;5010718;28;20060;-52
2021/04/18 07:21:48;;;;;;;16.20;3.67;;;;;;;;;;5014724;28;20037;-54
2021/04/18 07:24:14;;;;;;;13.80;2.97;;;;;;;;;;5016498;28;20041;-54
2021/04/18 07:26:40;;;;;;;13.25;3.53;;;;;;;;;;5018117;28;20042;-56
2021/04/18 07:29:12;;;;;;;15.38;3.55;;;;;;;;;;5019106;28;20088;-55
2021/04/18 07:31:37;;;;;;;10.52;3.90;;;;;;;;;;5018143;28;20041;-56
2021/04/18 07:34:06;;;;;;;8.20;3.38;;;;;;;;;;5019410;28;20441;-56
2021/04/18 07:36:33;;;;;;;10.60;3.42;;;;;;;;;;5034205;28;20491;-54
2021/04/18 07:38:59;;;;;;;12.35;3.03;;;;;;;;;;5018868;28;20041;-57
2021/04/18 07:41:25;;;;;;;31.88;2.83;;;;;;;;;;5016852;28;20080;-54
2021/04/18 07:43:51;;;;;;;26.95;2.90;;;;;;;;;;5013882;28;20053;-57
2021/04/18 07:46:17;;;;;;;66.70;3.92;;;;;;;;;;5019287;28;20063;-56
2021/04/18 07:48:44;;;;;;;53.13;3.42;;;;;;;;;;5018869;28;20030;-56
2021/04/18 07:51:10;;;;;;;45.13;3.35;;;;;;;;;;5018100;28;20191;-57
2021/04/18 07:53:37;;;;;;;56.10;4.30;;;;;;;;;;5018214;28;20142;-56
2021/04/18 07:56:07;;;;;;;26.10;2.08;;;;;;;;;;5017911;28;20053;-55
2021/04/18 07:58:34;;;;;;;15.25;1.90;;;;;;;;;;5018772;28;20033;-54
2021/04/18 08:01:00;;;;;;;10.05;2.00;;;;;;;;;;5017536;28;20390;-58
2021/04/18 08:03:26;;;;;;;10.77;3.20;;;;;;;;;;5018339;28;20054;-57
2021/04/18 08:05:51;;;;;;;11.80;1.88;;;;;;;;;;5018912;28;20041;-54
2021/04/18 08:08:17;;;;;;;10.85;1.88;;;;;;;;;;5018856;28;20049;-56
2021/04/18 08:10:47;;;;;;;13.02;2.05;;;;;;;;;;5018027;28;20117;-55
2021/04/18 08:13:16;;;;;;;7.30;1.92;;;;;;;;;;5021054;28;20048;-55
2021/04/18 08:15:42;;;;;;;11.68;2.20;;;;;;;;;;5019461;28;20048;-54
2021/04/18 08:18:09;;;;;;;8.98;2.10;;;;;;;;;;5020143;28;20038;-55
2021/04/18 08:20:42;;;;;;;6.88;1.90;;;;;;;;;;5018728;28;20041;-53
2021/04/18 08:23:09;;;;;;;8.90;1.98;;;;;;;;;;5018720;28;20409;-55
2021/04/18 08:25:36;;;;;;;6.70;2.10;;;;;;;;;;5017551;28;20041;-54
2021/04/18 08:28:12;;;;;;;7.50;2.28;;;;;;;;;;5020125;28;20366;-56
2021/04/18 08:30:57;;;;;;;8.68;2.10;;;;;;;;;;5018533;28;20053;-56
2021/04/18 08:33:39;;;;;;;7.05;2.25;;;;;;;;;;4995479;28;20045;-57
2021/04/18 08:36:22;;;;;;;7.43;2.53;;;;;;;;;;5020301;28;20037;-56
2021/04/18 08:39:06;;;;;;;11.57;2.60;;;;;;;;;;5019269;28;20033;-56
2021/04/18 08:41:52;;;;;;;8.80;2.20;;;;;;;;;;5025712;28;20053;-55
2021/04/18 08:44:21;;;;;;;7.82;2.53;;;;;;;;;;5018165;28;20118;-56
2021/04/18 08:46:48;;;;;;;8.48;2.10;;;;;;;;;;5017253;28;20074;-57
2021/04/18 08:49:25;;;;;;;7.65;2.38;;;;;;;;;;5017263;28;20134;-55
2021/04/18 08:51:52;;;;;;;7.22;2.65;;;;;;;;;;5016493;28;20041;-53
2021/04/18 08:54:22;;;;;;;13.68;2.35;;;;;;;;;;5016842;28;20056;-55
2021/04/18 08:56:55;;;;;;;5.05;2.30;;;;;;;;;;5017805;28;20098;-55
2021/04/18 08:59:21;;;;;;;8.55;2.47;;;;;;;;;;5017092;28;20083;-55
2021/04/18 09:01:53;;;;;;;7.13;2.50;;;;;;;;;;5017754;28;20037;-55
2021/04/18 09:04:20;;;;;;;6.95;2.00;;;;;;;;;;5016855;28;20056;-52
2021/04/18 09:06:48;;;;;;;9.50;2.30;;;;;;;;;;5012928;28;20041;-55
2021/04/18 09:09:14;;;;;;;6.00;1.85;;;;;;;;;;5016966;28;20053;-54
2021/04/18 09:11:42;;;;;;;9.73;2.00;;;;;;;;;;5015441;28;20068;-56
2021/04/18 09:14:08;;;;;;;4.13;1.88;;;;;;;;;;5017105;28;20360;-55
2021/04/18 09:16:35;;;;;;;4.25;0.80;;;;;;;;;;5017901;28;20410;-57
2021/04/18 09:19:20;;;;;;;3.40;1.15;;;;;;;;;;5017293;28;20076;-56
2021/04/18 09:22:08;;;;;;;3.72;1.23;;;;;;;;;;5014877;28;20049;-57
2021/04/18 09:24:49;;;;;;;;;;;;;;;;;;;;;
2021/04/18 09:27:16;;;;;;;2.83;1.10;;;;;;;;;;4980985;28;20046;-56
2021/04/18 09:29:47;;;;;;;3.42;0.95;;;;;;;;;;4988326;28;20121;-56
2021/04/18 09:32:14;;;;;;;3.50;1.15;;;;;;;;;;4985430;28;20077;-56
2021/04/18 09:34:41;;;;;;;2.80;0.88;;;;;;;;;;4984272;28;20102;-53
2021/04/18 09:37:09;;;;;;;5.10;1.17;;;;;;;;;;4987613;28;20230;-54
2021/04/18 09:39:36;;;;;;;3.53;1.00;;;;;;;;;;4988832;28;20046;-56
2021/04/18 09:42:03;;;;;;;4.97;1.52;;;;;;;;;;4992156;28;20045;-54
2021/04/18 09:44:31;;;;;;;3.90;1.40;;;;;;;;;;4992207;28;20034;-53
2021/04/18 09:46:59;;;;;;;2.95;1.08;;;;;;;;;;4993322;28;20042;-51
2021/04/18 09:49:25;;;;;;;4.25;1.55;;;;;;;;;;4991908;28;20610;-55
2021/04/18 09:51:56;;;;;;;4.13;1.45;;;;;;;;;;4992551;28;20046;-54
2021/04/18 09:54:26;;;;;;;4.05;1.52;;;;;;;;;;4991976;28;20041;-53
2021/04/18 09:57:14;;;;;;;2.83;1.10;;;;;;;;;;4992622;28;20036;-50
2021/04/18 09:59:40;;;;;;;3.72;1.50;;;;;;;;;;4991881;28;20398;-56
2021/04/18 10:02:10;;;;;;;5.70;1.67;;;;;;;;;;4992546;28;20049;-53
2021/04/18 10:04:36;;;;;;;4.43;1.30;;;;;;;;;;4994214;28;20054;-55
2021/04/18 10:07:01;;;;;;;4.97;1.75;;;;;;;;;;5003921;28;20048;-55
2021/04/18 10:09:45;;;;;;;3.80;1.48;;;;;;;;;;5015940;28;20049;-54
2021/04/18 10:12:11;;;;;;;4.40;1.50;;;;;;;;;;5016922;28;20117;-55
2021/04/18 10:14:37;;;;;;;3.05;1.60;;;;;;;;;;5015945;28;20051;-56
2021/04/18 10:17:03;;;;;;;5.00;1.50;;;;;;;;;;5017337;28;20124;-55
2021/04/18 10:19:29;;;;;;;4.78;1.23;;;;;;;;;;5017092;28;20053;-53
2021/04/18 10:22:01;;;;;;;5.15;1.35;;;;;;;;;;5016342;28;20052;-57
2021/04/18 10:24:48;;;;;;;3.47;1.25;;;;;;;;;;5016038;28;20040;-53
2021/04/18 10:27:15;;;;;;;4.78;1.38;;;;;;;;;;5013289;28;20533;-56
2021/04/18 10:29:42;;;;;;;3.90;1.55;;;;;;;;;;5016629;28;20060;-54
2021/04/18 10:32:08;;;;;;;6.20;1.52;;;;;;;;;;5016748;28;20041;-54
2021/04/18 10:34:34;;;;;;;5.60;1.20;;;;;;;;;;5015885;28;20072;-53
2021/04/18 10:37:00;;;;;;;3.33;1.35;;;;;;;;;;5017880;28;20088;-54
2021/04/18 10:39:27;;;;;;;3.85;1.58;;;;;;;;;;5015996;28;20128;-57
2021/04/18 10:41:53;;;;;;;4.40;1.48;;;;;;;;;;5015153;28;20077;-56
2021/04/18 10:44:20;;;;;;;7.70;2.15;;;;;;;;;;5015428;28;20058;-57
2021/04/18 10:46:49;;;;;;;3.90;1.63;;;;;;;;;;5016440;28;20033;-56
2021/04/18 10:49:15;;;;;;;3.60;1.30;;;;;;;;;;5015887;28;20156;-57
2021/04/18 10:51:41;;;;;;;3.55;1.33;;;;;;;;;;5013783;28;20045;-55
2021/04/18 10:54:07;;;;;;;6.63;1.27;;;;;;;;;;5017525;28;20034;-57
2021/04/18 10:56:33;;;;;;;4.57;2.17;;;;;;;;;;5015497;28;20047;-56
2021/04/18 10:58:59;;;;;;;4.47;1.80;;;;;;;;;;5016452;28;20076;-56
2021/04/18 11:01:25;;;;;;;3.40;1.33;;;;;;;;;;5015577;28;20034;-55
2021/04/18 11:03:52;;;;;;;3.10;1.25;;;;;;;;;;5015876;28;20050;-55
2021/04/18 11:06:18;;;;;;;4.65;1.60;;;;;;;;;;5016111;28;20311;-56
2021/04/18 11:08:43;;;;;;;3.35;1.42;;;;;;;;;;5016099;28;20041;-55
2021/04/18 11:11:12;;;;;;;3.42;1.30;;;;;;;;;;5015983;28;20043;-55
2021/04/18 11:13:39;;;;;;;3.15;1.33;;;;;;;;;;5015655;28;20033;-56
2021/04/18 11:16:05;;;;;;;3.10;1.40;;;;;;;;;;5016754;28;20041;-55
2021/04/18 11:18:31;;;;;;;4.15;1.38;;;;;;;;;;5017079;28;20052;-56
2021/04/18 11:20:57;;;;;;;3.03;1.20;;;;;;;;;;5015416;28;20037;-53
2021/04/18 11:23:23;;;;;;;4.07;2.05;;;;;;;;;;5015724;28;20060;-55
2021/04/18 11:25:49;;;;;;;3.78;1.20;;;;;;;;;;5017445;28;20522;-55
2021/04/18 11:28:15;;;;;;;5.38;2.08;;;;;;;;;;5016069;28;20042;-53
2021/04/18 11:30:41;;;;;;;4.60;1.92;;;;;;;;;;5030759;28;20048;-57
2021/04/18 11:33:07;;;;;;;3.42;1.27;;;;;;;;;;5016884;28;20045;-56
2021/04/18 11:35:33;;;;;;;5.43;1.98;;;;;;;;;;5017167;28;20092;-56
2021/04/18 11:38:00;;;;;;;2.78;1.13;;;;;;;;;;5019181;28;20049;-56
2021/04/18 11:40:26;;;;;;;6.07;2.03;;;;;;;;;;5025382;28;20033;-57
2021/04/18 11:42:52;;;;;;;3.00;1.40;;;;;;;;;;5028378;28;20559;-54
2021/04/18 11:45:19;;;;;;;3.53;1.58;;;;;;;;;;5020696;28;20030;-54
2021/04/18 11:47:45;;;;;;;3.75;1.63;;;;;;;;;;5029774;28;20041;-56
2021/04/18 11:50:12;;;;;;;4.75;1.65;;;;;;;;;;5038361;28;20543;-53
2021/04/18 11:52:38;;;;;;;5.55;2.10;;;;;;;;;;5020159;28;20041;-56
2021/04/18 11:55:04;;;;;;;4.75;1.67;;;;;;;;;;5020708;28;20041;-56
2021/04/18 11:57:30;;;;;;;3.50;1.20;;;;;;;;;;5017912;28;20037;-55
2021/04/18 11:59:56;;;;;;;3.15;1.63;;;;;;;;;;5019616;28;20069;-57
2021/04/18 12:02:23;;;;;;;4.82;1.77;;;;;;;;;;5018648;28;20060;-56
2021/04/18 12:04:49;;;;;;;9.45;3.20;;;;;;;;;;5019358;28;20065;-57
2021/04/18 12:07:15;;;;;;;5.72;1.80;;;;;;;;;;5020041;28;20447;-54
2021/04/18 12:09:42;;;;;;;3.67;1.65;;;;;;;;;;5018792;28;20041;-55
2021/04/18 12:12:08;;;;;;;8.25;2.53;;;;;;;;;;5020132;28;20037;-55
2021/04/18 12:14:34;;;;;;;6.13;2.25;;;;;;;;;;5019244;28;20693;-52
2021/04/18 12:17:00;;;;;;;6.47;2.35;;;;;;;;;;5019518;28;20053;-54
2021/04/18 12:19:26;;;;;;;4.70;2.67;;;;;;;;;;5018898;28;20137;-56
2021/04/18 12:21:51;;;;;;;5.60;3.10;;;;;;;;;;5020299;28;20065;-55
2021/04/18 12:24:19;;;;;;;4.40;2.13;;;;;;;;;;5019690;28;20522;-56
2021/04/18 12:26:45;;;;;;;4.70;2.25;;;;;;;;;;5010804;28;20034;-53
2021/04/18 12:29:11;;;;;;;5.13;2.00;;;;;;;;;;5018759;28;20045;-56
2021/04/18 12:31:41;;;;;;;4.30;2.40;;;;;;;;;;5019636;28;20957;-55
2021/04/18 12:34:07;;;;;;;6.03;2.72;;;;;;;;;;5020392;28;20442;-55
2021/04/18 12:36:33;;;;;;;5.75;2.90;;;;;;;;;;5018680;28;20637;-56
2021/04/18 12:38:59;;;;;;;6.38;2.85;;;;;;;;;;5019539;28;20034;-56
2021/04/18 12:41:25;;;;;;;3.15;1.67;;;;;;;;;;5016988;28;20141;-57
2021/04/18 12:43:51;;;;;;;5.70;2.47;;;;;;;;;;5018942;28;20053;-52
2021/04/18 12:46:18;;;;;;;6.25;3.10;;;;;;;;;;5018148;28;20048;-56
2021/04/18 12:48:44;;;;;;;5.38;2.90;;;;;;;;;;5019118;28;20034;-53
2021/04/18 12:51:09;;;;;;;7.13;3.20;;;;;;;;;;5017732;28;20793;-54
2021/04/18 12:53:36;;;;;;;5.47;2.25;;;;;;;;;;5017526;28;20076;-58
2021/04/18 12:56:02;;;;;;;6.90;2.47;;;;;;;;;;5018089;28;20045;-56
2021/04/18 12:58:28;;;;;;;4.32;2.30;;;;;;;;;;5019179;28;20171;-56
2021/04/18 13:00:54;;;;;;;3.47;1.13;;;;;;;;;;5019738;28;20390;-55
2021/04/18 13:03:20;;;;;;;4.55;1.45;;;;;;;;;;5019234;28;20060;-54
2021/04/18 13:05:47;;;;;;;2.65;0.95;;;;;;;;;;5022580;28;20087;-56
2021/04/18 13:08:12;;;;;;;4.25;1.13;;;;;;;;;;5022448;28;20041;-56
2021/04/18 13:10:38;;;;;;;2.97;1.05;;;;;;;;;;5033888;28;20057;-57
2021/04/18 13:13:04;;;;;;;2.83;1.08;;;;;;;;;;5040681;28;20041;-59
2021/04/18 13:15:30;;;;;;;2.22;0.93;;;;;;;;;;5038603;28;20103;-57
2021/04/18 13:17:57;;;;;;;3.58;0.98;;;;;;;;;;5035264;28;20034;-57
2021/04/18 13:20:23;;;;;;;4.63;1.67;;;;;;;;;;5023672;28;20172;-58
2021/04/18 13:22:51;;;;;;;3.05;1.33;;;;;;;;;;5021771;28;20967;-57
2021/04/18 13:25:17;;;;;;;2.78;1.30;;;;;;;;;;5018823;28;20043;-58
2021/04/18 13:27:43;;;;;;;2.88;1.25;;;;;;;;;;5018406;28;20029;-58
2021/04/18 13:30:10;;;;;;;2.85;1.27;;;;;;;;;;5018565;28;20060;-58
2021/04/18 13:32:36;;;;;;;3.58;1.70;;;;;;;;;;5017533;28;20045;-57
2021/04/18 13:35:03;;;;;;;3.53;1.50;;;;;;;;;;5017298;28;20732;-58
2021/04/18 13:37:29;;;;;;;2.92;1.20;;;;;;;;;;5014463;28;20029;-60
2021/04/18 13:39:55;;;;;;;2.70;1.13;;;;;;;;;;5018239;28;20037;-60
2021/04/18 13:42:21;;;;;;;2.60;0.88;;;;;;;;;;5015626;28;20049;-59
2021/04/18 13:44:47;;;;;;;2.40;0.95;;;;;;;;;;5017713;28;20075;-57
2021/04/18 13:47:13;;;;;;;2.40;0.98;;;;;;;;;;5015937;28;20045;-58
2021/04/18 13:49:38;;;;;;;2.28;0.85;;;;;;;;;;5017298;28;20486;-55
2021/04/18 13:52:05;;;;;;;2.58;0.75;;;;;;;;;;5016613;28;20575;-57
2021/04/18 13:54:31;;;;;;;2.58;0.90;;;;;;;;;;5015780;28;20044;-57
2021/04/18 13:56:57;;;;;;;1.77;0.80;;;;;;;;;;5015332;28;20090;-57
2021/04/18 13:59:23;;;;;;;2.10;0.70;;;;;;;;;;5016464;28;20041;-58
2021/04/18 14:01:49;;;;;;;2.80;1.35;;;;;;;;;;5017396;28;20046;-57
2021/04/18 14:04:15;;;;;;;2.90;1.10;;;;;;;;;;5016913;28;20508;-57
2021/04/18 14:06:41;;;;;;;5.40;2.65;;;;;;;;;;5014823;28;20045;-58
2021/04/18 14:09:07;;;;;;;4.82;2.42;;;;;;;;;;5011126;28;20259;-59
2021/04/18 14:11:32;;;;;;;3.97;2.08;;;;;;;;;;5015621;28;20048;-59
2021/04/18 14:13:58;;;;;;;6.60;3.85;;;;;;;;;;5017891;28;20045;-58
2021/04/18 14:16:24;;;;;;;8.52;3.08;;;;;;;;;;5015654;28;20050;-57
2021/04/18 14:18:50;;;;;;;7.47;3.30;;;;;;;;;;5015197;28;20123;-57
2021/04/18 14:21:16;;;;;;;7.22;3.33;;;;;;;;;;5015865;28;20556;-55
2021/04/18 14:23:42;;;;;;;7.65;3.92;;;;;;;;;;5014762;28;20640;-58
2021/04/18 14:26:08;;;;;;;8.50;4.38;;;;;;;;;;5005271;28;20039;-58
2021/04/18 14:28:37;;;;;;;3.00;1.33;;;;;;;;;;5013882;28;20892;-57
2021/04/18 14:31:06;;;;;;;4.03;1.58;;;;;;;;;;5016193;28;20099;-58
2021/04/18 14:33:32;;;;;;;4.63;1.80;;;;;;;;;;5016106;28;20113;-58
2021/04/18 14:35:58;;;;;;;5.07;2.38;;;;;;;;;;5007126;28;20094;-59
2021/04/18 14:38:25;;;;;;;4.28;1.65;;;;;;;;;;5013945;28;20041;-58